Search for airport 
image banner adimage banner adimage banner ad
image banner ad

PA71 - Dwight's Delight

Located in Dushore, United States

ICAO - PA71, IATA -

Data provided by Airmate  

General information

Coordinates: N41°31'15" W76°27'44"
Elevation is 1717 feet MSL.
Magnetic variation is -11° East
View others Airports in Pennsylvania

Operational data

Special qualification required
Current time UTC:
Current local time:
Weather at : KIPT - Williamsport Rgnl ( 49 km )
METAR: KIPT 091654Z 21006KT 8SM -RA SCT035 BKN042 OVC050 09/03 A3002 RMK AO2 RAB43 SLP168 P0000 T00890028
TAF: KIPT 091537Z 0916/1012 15006KT 4SM -RA BR OVC025 FM092000 12007KT 3SM -RA BR OVC008 FM100400 06008G15KT 2SM -RA BR OVC006 FM101100 35008G15KT P6SM BKN009 OVC015
View NOTAMs / SUP AIP / TFR affecting this airport [VIEW]
Communications frequencies: [VIEW]

Runways:

RWY identifierQFULength (ft)Width (ft)SurfaceLDA (ft)
07199090GRASS
25199090GRASS

Airport contact information

Address: Dushore United States

Satellite view of PA71